Time;durP1;ratioP1;P1;durP2;ratioP2;P2;SDS_P1;SDS_P2;PMS_P1;PMS_P2;Temp;Humidity;BMP_temperature;BMP_pressure;BME280_temperature;BME280_humidity;BME280_pressure;Samples;Min_cycle;Max_cycle;Signal;HPM_P1;HPM_P2
2022/04/20 00:00:34;;;;;;;4.30;3.13;;;6.40;99.90;;;;;;5058033;28;20191;-46
2022/04/20 00:03:00;;;;;;;3.43;2.90;;;6.40;99.90;;;;;;5049041;28;20645;-44
2022/04/20 00:05:28;;;;;;;3.47;3.17;;;6.40;99.90;;;;;;5039988;28;20215;-45
2022/04/20 00:07:55;;;;;;;3.93;3.53;;;6.40;99.90;;;;;;5052649;28;20305;-44
2022/04/20 00:10:23;;;;;;;3.77;3.07;;;6.40;99.90;;;;;;5051685;28;20214;-46
2022/04/20 00:12:50;;;;;;;4.90;2.93;;;6.40;99.90;;;;;;5058422;28;20250;-44
2022/04/20 00:15:17;;;;;;;6.07;3.17;;;6.30;99.90;;;;;;5055249;28;20218;-45
2022/04/20 00:17:43;;;;;;;3.60;3.30;;;6.30;99.90;;;;;;5043434;28;20213;-49
2022/04/20 00:20:11;;;;;;;5.67;3.13;;;6.30;99.90;;;;;;5043775;28;20583;-50
2022/04/20 00:22:38;;;;;;;4.17;3.27;;;6.20;99.90;;;;;;5048436;28;20922;-46
2022/04/20 00:25:05;;;;;;;4.47;3.63;;;6.30;99.90;;;;;;5049602;28;20201;-48
2022/04/20 00:27:35;;;;;;;8.03;3.30;;;6.30;99.90;;;;;;5050334;28;20722;-45
2022/04/20 00:30:02;;;;;;;4.80;3.57;;;6.30;99.90;;;;;;5047355;28;20206;-48
2022/04/20 00:32:30;;;;;;;5.00;3.10;;;6.30;99.90;;;;;;5045540;28;20219;-46
2022/04/20 00:34:58;;;;;;;5.13;3.17;;;6.20;99.90;;;;;;5035428;28;20260;-44
2022/04/20 00:37:25;;;;;;;5.23;3.37;;;6.20;99.90;;;;;;5049470;28;20218;-45
2022/04/20 00:39:52;;;;;;;6.03;3.60;;;6.20;99.90;;;;;;5047124;28;20337;-46
2022/04/20 00:42:23;;;;;;;2.83;2.63;;;6.20;99.90;;;;;;5044294;28;20227;-49
2022/04/20 00:44:51;;;;;;;5.60;3.43;;;6.20;99.90;;;;;;5044750;28;20282;-44
2022/04/20 00:47:19;;;;;;;5.40;3.30;;;6.10;99.90;;;;;;5047924;28;20682;-44
2022/04/20 00:49:48;;;;;;;3.57;3.27;;;6.10;99.90;;;;;;5032914;28;20216;-46
2022/04/20 00:52:15;;;;;;;5.80;2.70;;;6.10;99.90;;;;;;5061902;28;20223;-44
2022/04/20 00:54:42;;;;;;;6.37;3.40;;;6.10;99.90;;;;;;5047656;28;20191;-45
2022/04/20 00:57:09;;;;;;;3.43;3.17;;;6.10;99.90;;;;;;5047373;28;20246;-45
2022/04/20 00:59:38;;;;;;;4.27;2.57;;;6.10;99.90;;;;;;5054473;28;20264;-44
2022/04/20 01:02:06;;;;;;;4.57;2.93;;;6.00;99.90;;;;;;5052987;28;20575;-45
2022/04/20 01:04:34;;;;;;;3.50;3.17;;;6.00;99.90;;;;;;5041847;28;20206;-45
2022/04/20 01:07:36;;;;;;;5.80;3.00;;;6.00;99.90;;;;;;5030849;28;20234;-46
2022/04/20 01:10:22;;;;;;;3.63;2.80;;;5.90;99.90;;;;;;5051393;28;20762;-44
2022/04/20 01:12:57;;;;;;;3.57;2.83;;;5.90;99.90;;;;;;5047046;28;20785;-47
2022/04/20 01:15:36;;;;;;;5.03;3.10;;;5.90;99.90;;;;;;5052451;28;20211;-50
2022/04/20 01:18:30;;;;;;;4.37;3.47;;;5.90;99.90;;;;;;5048696;28;20286;-47
2022/04/20 01:21:17;;;;;;;4.13;3.20;;;5.90;99.90;;;;;;5042872;28;20230;-48
2022/04/20 01:24:07;;;;;;;5.33;3.20;;;5.90;99.90;;;;;;5049959;28;20787;-45
2022/04/20 01:26:36;;;;;;;4.70;3.20;;;5.80;99.90;;;;;;5046747;28;20731;-48
2022/04/20 01:29:14;;;;;;;5.43;2.83;;;5.80;99.90;;;;;;5050788;28;20664;-50
2022/04/20 01:31:54;;;;;;;3.20;2.67;;;5.80;99.90;;;;;;5051925;28;20215;-47
2022/04/20 01:34:33;;;;;;;3.40;3.10;;;7.20;99.90;;;;;;5041392;28;20624;-45
2022/04/20 01:37:01;;;;;;;3.97;3.20;;;5.80;99.90;;;;;;5039188;28;20221;-45
2022/04/20 01:39:28;;;;;;;4.97;3.03;;;5.80;99.90;;;;;;5050528;28;20198;-46
2022/04/20 01:41:56;;;;;;;5.67;2.90;;;5.80;99.90;;;;;;5053406;28;20218;-48
2022/04/20 01:44:23;;;;;;;3.50;3.03;;;5.80;99.90;;;;;;5048712;28;20233;-47
2022/04/20 01:47:12;;;;;;;4.40;3.57;;;5.80;99.90;;;;;;5055235;28;20623;-48
2022/04/20 01:50:08;;;;;;;3.93;2.80;;;5.80;99.90;;;;;;5055108;28;20207;-44
2022/04/20 01:53:00;;;;;;;4.83;3.10;;;5.70;99.90;;;;;;5045598;28;20283;-47
2022/04/20 01:55:47;;;;;;;6.20;3.90;;;5.60;99.90;;;;;;5049683;28;20269;-45
2022/04/20 01:58:33;;;;;;;4.77;2.97;;;5.60;99.90;;;;;;5054258;28;20700;-44
2022/04/20 02:04:07;;;;;;;4.60;3.00;;;5.50;99.90;;;;;;5053696;28;20195;-45
2022/04/20 02:06:37;;;;;;;4.00;3.20;;;5.50;99.90;;;;;;5032673;28;21872;-51
2022/04/20 02:09:14;;;;;;;5.57;3.53;;;5.40;99.90;;;;;;5073504;28;20724;-46
2022/04/20 02:11:44;;;;;;;5.57;3.40;;;5.30;99.90;;;;;;5045778;28;20930;-44
2022/04/20 02:14:26;;;;;;;5.13;3.10;;;5.30;99.90;;;;;;5047743;28;20300;-46
2022/04/20 02:17:04;;;;;;;4.17;3.07;;;5.20;99.90;;;;;;5048476;28;20283;-46
2022/04/20 02:19:42;;;;;;;7.70;3.03;;;5.30;99.90;;;;;;5058775;28;20912;-45
2022/04/20 02:22:22;;;;;;;4.27;3.27;;;5.20;99.90;;;;;;5048879;28;20226;-47
2022/04/20 02:24:50;;;;;;;5.00;3.23;;;5.20;99.90;;;;;;5042091;28;20927;-44
2022/04/20 02:27:16;;;;;;;5.40;3.77;;;5.20;99.90;;;;;;5044655;28;20219;-45
2022/04/20 02:29:43;;;;;;;5.07;3.40;;;5.20;99.90;;;;;;5043102;28;20222;-44
2022/04/20 02:32:10;;;;;;;4.07;3.23;;;5.10;99.90;;;;;;5048316;28;20570;-44
2022/04/20 02:34:38;;;;;;;4.13;3.27;;;5.10;99.90;;;;;;5052415;28;20190;-46
2022/04/20 02:37:05;;;;;;;3.73;3.03;;;5.00;99.90;;;;;;5049208;28;20604;-48
2022/04/20 02:39:33;;;;;;;4.73;3.33;;;5.00;99.90;;;;;;5034312;28;20257;-45
2022/04/20 02:42:01;;;;;;;6.43;3.13;;;5.00;99.90;;;;;;5058126;28;20214;-46
2022/04/20 02:44:28;;;;;;;3.80;3.30;;;5.00;99.90;;;;;;5047289;28;20207;-44
2022/04/20 02:46:55;;;;;;;4.67;3.40;;;4.90;99.90;;;;;;5049306;28;20183;-45
2022/04/20 02:49:22;;;;;;;3.93;3.53;;;4.90;99.90;;;;;;5053380;28;20738;-46
2022/04/20 02:51:49;;;;;;;4.90;3.57;;;4.90;99.90;;;;;;5051915;28;20206;-49
2022/04/20 02:54:16;;;;;;;7.87;3.37;;;4.90;99.90;;;;;;5052976;28;20256;-50
2022/04/20 02:56:43;;;;;;;5.27;3.20;;;4.90;99.90;;;;;;5040796;28;20205;-44
2022/04/20 02:59:11;;;;;;;6.60;3.17;;;4.80;99.90;;;;;;5042952;28;20200;-45
2022/04/20 03:01:41;;;;;;;6.10;3.10;;;4.80;99.90;;;;;;5042641;28;20219;-45
2022/04/20 03:04:12;;;;;;;3.77;3.10;;;4.80;99.90;;;;;;5047830;28;20256;-45
2022/04/20 03:06:39;;;;;;;4.80;3.10;;;4.70;99.90;;;;;;5045732;28;20207;-45
2022/04/20 03:09:13;;;;;;;3.47;3.00;;;4.70;99.90;;;;;;5043223;28;20226;-45
2022/04/20 03:11:42;;;;;;;5.23;3.30;;;4.70;99.90;;;;;;5044010;28;20220;-45
2022/04/20 03:14:09;;;;;;;6.90;3.60;;;4.60;99.90;;;;;;5054622;28;20565;-45
2022/04/20 03:16:38;;;;;;;3.50;3.17;;;4.60;99.90;;;;;;5043267;28;20200;-46
2022/04/20 03:19:10;;;;;;;6.40;3.17;;;4.60;99.90;;;;;;5052153;28;20199;-44
2022/04/20 03:21:38;;;;;;;7.70;3.20;;;4.60;99.90;;;;;;5050295;28;20312;-47
2022/04/20 03:24:06;;;;;;;5.43;3.90;;;4.60;99.90;;;;;;5047454;28;20286;-47
2022/04/20 03:26:46;;;;;;;4.50;3.03;;;4.60;99.90;;;;;;5046328;28;20927;-44
2022/04/20 03:29:19;;;;;;;3.30;2.67;;;4.60;99.90;;;;;;5044168;28;20226;-46
2022/04/20 03:31:48;;;;;;;4.07;2.60;;;4.60;99.90;;;;;;5050675;28;20223;-45
2022/04/20 03:34:15;;;;;;;4.73;3.20;;;4.50;99.90;;;;;;5051319;28;20206;-47
2022/04/20 03:36:42;;;;;;;4.10;3.17;;;4.60;99.90;;;;;;5045756;28;20218;-46
2022/04/20 03:39:09;;;;;;;5.63;3.80;;;4.50;99.90;;;;;;5045265;28;20214;-45
2022/04/20 03:41:35;;;;;;;4.83;2.93;;;4.50;99.90;;;;;;5033076;28;20211;-45
2022/04/20 03:44:06;;;;;;;4.70;3.33;;;4.50;99.90;;;;;;5053938;28;20220;-46
2022/04/20 03:46:33;;;;;;;3.37;3.00;;;4.40;99.90;;;;;;5044999;28;20491;-47
2022/04/20 03:49:01;;;;;;;4.97;3.20;;;4.40;99.90;;;;;;5052487;28;20218;-46
2022/04/20 03:51:28;;;;;;;3.67;2.97;;;4.40;99.90;;;;;;5049815;28;20272;-47
2022/04/20 03:53:56;;;;;;;5.53;3.03;;;4.40;99.90;;;;;;5054902;28;20206;-46
2022/04/20 03:56:23;;;;;;;4.40;3.00;;;4.40;99.90;;;;;;5039810;28;20207;-44
2022/04/20 03:58:50;;;;;;;4.93;2.90;;;4.40;99.90;;;;;;5044170;28;20203;-47
2022/04/20 04:01:17;;;;;;;6.40;5.67;;;4.40;99.90;;;;;;5041797;28;20263;-46
2022/04/20 04:03:45;;;;;;;3.73;3.10;;;4.40;99.90;;;;;;5046611;28;20213;-46
2022/04/20 04:06:18;;;;;;;3.80;3.00;;;4.30;99.90;;;;;;5047666;28;20293;-49
2022/04/20 04:08:46;;;;;;;5.03;3.17;;;4.30;99.90;;;;;;5047627;28;20208;-45
2022/04/20 04:11:13;;;;;;;3.10;2.80;;;4.30;99.90;;;;;;5041008;28;20228;-48
2022/04/20 04:13:40;;;;;;;4.73;3.30;;;4.30;99.90;;;;;;5047503;28;20212;-46
2022/04/20 04:16:08;;;;;;;6.20;3.70;;;4.20;99.90;;;;;;5054257;28;20964;-48
2022/04/20 04:18:35;;;;;;;5.10;3.07;;;4.20;99.90;;;;;;5041234;28;20225;-49
2022/04/20 04:21:07;;;;;;;4.00;3.17;;;4.20;99.90;;;;;;5045538;28;20198;-46
2022/04/20 04:23:35;;;;;;;5.07;2.97;;;4.20;99.90;;;;;;5054445;28;20194;-46
2022/04/20 04:26:01;;;;;;;3.50;2.80;;;4.20;99.90;;;;;;5051019;28;21725;-48
2022/04/20 04:28:58;;;;;;;4.00;3.07;;;4.20;99.90;;;;;;5054297;28;20210;-45
2022/04/20 04:31:26;;;;;;;6.10;3.17;;;4.20;99.90;;;;;;5053109;28;20291;-45
2022/04/20 04:33:55;;;;;;;5.03;2.80;;;4.20;99.90;;;;;;5049574;28;20186;-46
2022/04/20 04:36:22;;;;;;;3.33;3.00;;;4.30;99.90;;;;;;5043681;28;20211;-45
2022/04/20 04:38:59;;;;;;;4.87;3.20;;;4.30;99.90;;;;;;5067007;28;20265;-49
2022/04/20 04:41:32;;;;;;;3.03;2.77;;;4.30;99.90;;;;;;5039905;28;20222;-47
2022/04/20 04:44:01;;;;;;;6.23;2.83;;;4.30;99.90;;;;;;5058063;28;20205;-44
2022/04/20 04:49:32;;;;;;;5.37;2.97;;;4.40;99.90;;;;;;5058949;28;20267;-47
2022/04/20 04:52:00;;;;;;;2.70;2.50;;;4.40;99.90;;;;;;5051408;28;20313;-46
2022/04/20 04:54:30;;;;;;;3.60;3.10;;;4.50;99.90;;;;;;5056321;28;20227;-47
2022/04/20 04:56:58;;;;;;;3.50;2.50;;;4.50;99.90;;;;;;5043482;28;20692;-44
2022/04/20 04:59:25;;;;;;;3.60;2.50;;;4.60;99.90;;;;;;5039578;28;20918;-47
2022/04/20 05:01:55;;;;;;;4.87;2.63;;;4.60;99.90;;;;;;5057913;28;20224;-49
2022/04/20 05:04:23;;;;;;;3.43;3.13;;;4.70;99.90;;;;;;5046302;28;20202;-46
2022/04/20 05:06:56;;;;;;;5.40;2.80;;;4.70;99.90;;;;;;5055229;28;20222;-46
2022/04/20 05:09:39;;;;;;;6.70;2.93;;;4.80;99.90;;;;;;5067900;28;20853;-47
2022/04/20 05:12:10;;;;;;;3.40;3.13;;;4.90;99.90;;;;;;5035512;28;20254;-45
2022/04/20 05:14:39;;;;;;;4.63;2.77;;;5.00;99.90;;;;;;5061351;28;20214;-45
2022/04/20 05:17:06;;;;;;;2.77;2.50;;;5.10;99.90;;;;;;5049360;28;20222;-44
2022/04/20 05:19:34;;;;;;;4.57;3.07;;;5.20;99.90;;;;;;5054557;28;20188;-46
2022/04/20 05:22:09;;;;;;;5.67;3.00;;;5.30;99.90;;;;;;5048279;28;20230;-45
2022/04/20 05:24:40;;;;;;;4.97;3.03;;;5.40;99.90;;;;;;5057171;28;20202;-44
2022/04/20 05:27:11;;;;;;;5.10;3.43;;;5.50;99.90;;;;;;5045200;28;20297;-47
2022/04/20 05:29:50;;;;;;;3.60;2.87;;;5.70;99.90;;;;;;5049598;28;20233;-46
2022/04/20 05:32:17;;;;;;;4.07;2.83;;;5.80;99.90;;;;;;5050700;28;20219;-49
2022/04/20 05:34:43;;;;;;;4.20;3.30;;;5.90;99.90;;;;;;5055280;28;20202;-45
2022/04/20 05:42:46;;;;;;;5.43;3.07;;;6.30;99.90;;;;;;5059039;28;20223;-46
2022/04/20 05:45:14;;;;;;;6.63;3.30;;;6.40;99.90;;;;;;5032263;28;20320;-45
2022/04/20 05:47:45;;;;;;;3.37;3.03;;;6.60;99.90;;;;;;5048342;28;20823;-44
2022/04/20 05:50:11;;;;;;;5.77;3.33;;;6.60;99.90;;;;;;5052007;28;20214;-47
2022/04/20 05:52:38;;;;;;;3.60;3.23;;;6.80;99.90;;;;;;5049316;28;20234;-45
2022/04/20 05:55:08;;;;;;;3.70;3.40;;;6.80;99.90;;;;;;5054921;28;20301;-47
2022/04/20 05:57:38;;;;;;;7.47;3.53;;;6.90;99.90;;;;;;5052441;28;20231;-44
2022/04/20 06:00:07;;;;;;;7.93;3.20;;;6.90;99.90;;;;;;5044054;28;20215;-45
2022/04/20 06:02:43;;;;;;;3.73;2.83;;;7.00;99.90;;;;;;5051848;28;20303;-44
2022/04/20 06:05:13;;;;;;;3.77;3.13;;;7.00;99.90;;;;;;5056154;28;20762;-46
2022/04/20 06:07:59;;;;;;;5.53;3.30;;;7.10;99.90;;;;;;5052927;28;20287;-45
2022/04/20 06:10:47;;;;;;;5.67;3.60;;;7.20;99.90;;;;;;5058350;28;20407;-46
2022/04/20 06:13:17;;;;;;;6.87;3.33;;;7.20;99.90;;;;;;5051795;28;20219;-45
2022/04/20 06:16:07;;;;;;;3.53;2.77;;;7.30;99.90;;;;;;5052150;28;20711;-46
2022/04/20 06:18:48;;;;;;;3.30;3.07;;;7.30;99.90;;;;;;5051898;28;20195;-45
2022/04/20 06:21:22;;;;;;;4.40;3.10;;;7.30;99.90;;;;;;5053901;28;20249;-46
2022/04/20 06:24:05;;;;;;;3.57;2.80;;;7.30;99.90;;;;;;5064529;28;20207;-45
2022/04/20 06:26:44;;;;;;;5.63;2.70;;;7.30;99.90;;;;;;5057731;28;20933;-49
2022/04/20 06:29:25;;;;;;;3.10;2.67;;;7.30;99.90;;;;;;5041468;28;20329;-47
2022/04/20 06:32:19;;;;;;;3.83;3.20;;;7.50;99.90;;;;;;5050531;28;20738;-46
2022/04/20 06:35:01;;;;;;;5.43;3.20;;;7.60;99.90;;;;;;5053352;28;20207;-44
2022/04/20 06:37:38;;;;;;;3.93;3.20;;;7.70;99.90;;;;;;5049989;28;21002;-46
2022/04/20 06:40:21;;;;;;;3.53;2.60;;;7.80;99.90;;;;;;5048024;28;20207;-49
2022/04/20 06:43:13;;;;;;;6.17;3.07;;;7.90;99.90;;;;;;5049179;28;20245;-44
2022/04/20 06:45:58;;;;;;;4.50;2.97;;;8.00;99.90;;;;;;5049260;28;20221;-44
2022/04/20 06:48:55;;;;;;;2.63;2.33;;;8.10;99.90;;;;;;5037183;28;20219;-45
2022/04/20 07:00:17;;;;;;;3.47;2.60;;;8.50;99.90;;;;;;5053409;28;20209;-43
2022/04/20 07:03:00;;;;;;;6.53;2.97;;;8.60;99.90;;;;;;5023821;28;20256;-43
2022/04/20 07:05:46;;;;;;;7.37;2.30;;;8.70;99.90;;;;;;5051073;28;20284;-47
2022/04/20 07:08:32;;;;;;;3.20;2.90;;;8.80;99.90;;;;;;5042176;28;20210;-47
2022/04/20 07:11:06;;;;;;;3.57;2.80;;;8.90;99.90;;;;;;5047742;28;20222;-46
2022/04/20 07:13:33;;;;;;;2.27;2.07;;;8.90;99.90;;;;;;5042178;28;20209;-44
2022/04/20 07:16:01;;;;;;;4.60;2.77;;;9.10;99.90;;;;;;5054633;28;20577;-47
2022/04/20 07:18:32;;;;;;;3.93;2.60;;;9.20;99.90;;;;;;5051102;28;20584;-46
2022/04/20 07:20:59;;;;;;;2.23;2.03;;;9.30;99.90;;;;;;5056671;28;20213;-44
2022/04/20 07:23:52;;;;;;;2.77;2.50;;;9.30;99.90;;;;;;5041931;28;20211;-45
2022/04/20 07:26:39;;;;;;;3.03;2.20;;;9.40;99.90;;;;;;5057153;28;20923;-44
2022/04/20 07:29:29;;;;;;;4.23;2.30;;;9.60;99.90;;;;;;5049586;28;20578;-45
2022/04/20 07:32:15;;;;;;;3.27;2.37;;;9.70;99.90;;;;;;5048947;28;20218;-46
2022/04/20 07:35:00;;;;;;;3.17;2.27;;;9.80;99.90;;;;;;5053908;28;20574;-47
2022/04/20 07:37:36;;;;;;;2.57;2.10;;;9.80;99.90;;;;;;5048255;28;20191;-44
2022/04/20 07:40:23;;;;;;;3.10;1.80;;;9.90;99.90;;;;;;5053784;28;20249;-48
2022/04/20 07:43:10;;;;;;;3.87;2.00;;;10.00;99.90;;;;;;5050588;28;20233;-44
2022/04/20 07:46:06;;;;;;;2.93;2.30;;;10.10;99.90;;;;;;5062849;28;21086;-44
2022/04/20 07:48:53;;;;;;;4.57;2.23;;;10.20;99.90;;;;;;5041452;28;20222;-47
2022/04/20 07:51:35;;;;;;;2.00;1.80;;;10.30;99.90;;;;;;5053836;28;20218;-48
2022/04/20 07:54:25;;;;;;;2.30;2.10;;;10.50;99.90;;;;;;5054104;28;20207;-45
2022/04/20 07:57:18;;;;;;;2.33;1.80;;;10.70;99.90;;;;;;5046687;28;20561;-44
2022/04/20 08:00:02;;;;;;;3.23;1.97;;;10.80;99.90;;;;;;5055940;28;20194;-45
2022/04/20 08:02:41;;;;;;;2.93;1.30;;;10.80;99.90;;;;;;5050031;28;20830;-44
2022/04/20 08:05:25;;;;;;;3.03;1.60;;;10.70;99.90;;;;;;5037851;28;20218;-45
2022/04/20 08:07:52;;;;;;;2.50;1.90;;;11.20;99.90;;;;;;5056058;28;20209;-44
2022/04/20 08:10:18;;;;;;;2.47;1.60;;;11.30;99.90;;;;;;5052944;28;20569;-45
2022/04/20 08:12:45;;;;;;;2.20;1.80;;;11.40;99.90;;;;;;5045965;28;21006;-46
2022/04/20 08:15:25;;;;;;;3.43;1.60;;;11.60;99.70;;;;;;5053265;28;20222;-46
2022/04/20 08:17:53;;;;;;;3.27;1.67;;;11.60;99.10;;;;;;5086180;28;20301;-44
2022/04/20 08:20:47;;;;;;;1.67;1.57;;;11.70;98.80;;;;;;5042333;28;20238;-45
2022/04/20 08:23:14;;;;;;;4.10;1.93;;;11.80;97.20;;;;;;5059678;28;20217;-44
2022/04/20 08:25:41;;;;;;;1.73;1.63;;;11.90;97.20;;;;;;5048499;28;21018;-45
2022/04/20 08:28:08;;;;;;;2.37;1.40;;;12.00;96.20;;;;;;5055530;28;20209;-43
2022/04/20 08:30:34;;;;;;;2.50;2.13;;;12.00;95.30;;;;;;5047857;28;20670;-47
2022/04/20 08:33:01;;;;;;;2.90;1.67;;;12.00;94.30;;;;;;5060503;28;20583;-43
2022/04/20 08:35:28;;;;;;;1.77;1.67;;;12.10;93.70;;;;;;5036536;28;20199;-43
2022/04/20 08:37:55;;;;;;;2.07;1.90;;;12.10;93.50;;;;;;5054917;28;20206;-42
2022/04/20 08:40:22;;;;;;;2.53;1.60;;;12.20;93.40;;;;;;5050614;28;20187;-47
2022/04/20 08:42:50;;;;;;;3.37;2.23;;;12.30;93.70;;;;;;5045024;28;20254;-45
2022/04/20 08:45:20;;;;;;;2.77;2.20;;;12.40;93.30;;;;;;5053409;28;20205;-46
2022/04/20 08:47:50;;;;;;;2.47;2.27;;;12.40;93.00;;;;;;5047184;28;20199;-46
2022/04/20 08:50:17;;;;;;;3.03;2.20;;;12.50;93.20;;;;;;5049547;28;20238;-48
2022/04/20 08:52:49;;;;;;;2.63;2.20;;;12.50;92.80;;;;;;5037088;28;20697;-47
2022/04/20 08:55:18;;;;;;;4.50;2.20;;;12.60;93.00;;;;;;5050267;28;20203;-46
2022/04/20 08:57:47;;;;;;;4.83;2.17;;;12.60;92.40;;;;;;5052174;28;20199;-45
2022/04/20 09:00:20;;;;;;;2.07;1.97;;;12.50;92.80;;;;;;5057721;28;20194;-43
2022/04/20 09:02:47;;;;;;;3.30;2.50;;;12.70;92.50;;;;;;5054295;28;20248;-46
2022/04/20 09:05:14;;;;;;;2.77;2.30;;;12.60;92.50;;;;;;5055836;28;20350;-44
2022/04/20 09:07:40;;;;;;;3.77;2.00;;;12.50;92.90;;;;;;5044921;28;20228;-43
2022/04/20 09:10:07;;;;;;;3.53;2.47;;;12.50;93.20;;;;;;5055247;28;20222;-45
2022/04/20 09:12:41;;;;;;;3.93;2.00;;;12.50;93.20;;;;;;5055406;28;20219;-43
2022/04/20 09:15:10;;;;;;;2.10;1.90;;;12.60;93.20;;;;;;5053542;28;20201;-43
2022/04/20 09:17:41;;;;;;;3.17;1.70;;;12.70;93.30;;;;;;5052128;28;20894;-46
2022/04/20 09:20:09;;;;;;;2.40;2.20;;;12.90;93.50;;;;;;5051841;28;20176;-46
2022/04/20 09:22:36;;;;;;;2.53;2.33;;;12.90;93.30;;;;;;5045466;28;20222;-44
2022/04/20 09:25:06;;;;;;;2.10;1.90;;;13.00;92.90;;;;;;5052498;28;20257;-44
2022/04/20 09:27:36;;;;;;;2.13;1.93;;;12.90;93.10;;;;;;5052487;28;20199;-46
2022/04/20 09:30:07;;;;;;;3.33;1.83;;;12.80;93.20;;;;;;5055332;28;20221;-46
2022/04/20 09:32:37;;;;;;;2.30;1.80;;;12.90;93.50;;;;;;5058578;28;20250;-44
2022/04/20 09:35:06;;;;;;;1.97;1.60;;;13.00;93.50;;;;;;5053471;28;20301;-44
2022/04/20 09:37:34;;;;;;;3.13;1.77;;;13.10;93.60;;;;;;5044046;28;20203;-44
2022/04/20 09:40:32;;;;;;;2.50;1.50;;;13.20;92.70;;;;;;5061723;28;20269;-47
2022/04/20 09:43:02;;;;;;;2.73;1.07;;;13.30;92.50;;;;;;5048813;28;21010;-44
2022/04/20 09:45:29;;;;;;;3.20;1.30;;;13.40;92.30;;;;;;5055579;28;20245;-48
2022/04/20 09:50:43;;;;;;;2.50;1.60;;;13.50;91.70;;;;;;5064984;28;20285;-43
2022/04/20 09:53:13;;;;;;;2.67;1.20;;;13.50;91.00;;;;;;5043382;28;20292;-42
2022/04/20 09:55:42;;;;;;;1.37;1.27;;;13.60;90.60;;;;;;5059436;28;20213;-45
2022/04/20 09:58:17;;;;;;;1.70;1.60;;;13.60;90.30;;;;;;5058372;28;20190;-44
2022/04/20 10:00:47;;;;;;;2.00;1.40;;;13.60;88.60;;;;;;5050532;28;20744;-46
2022/04/20 10:03:24;;;;;;;3.47;1.47;;;13.60;87.70;;;;;;5056576;28;20272;-48
2022/04/20 10:05:51;;;;;;;2.57;1.30;;;13.60;89.90;;;;;;5055371;28;20199;-48
2022/04/20 10:08:18;;;;;;;2.50;1.10;;;13.60;90.20;;;;;;5057737;28;20200;-46
2022/04/20 10:10:47;;;;;;;1.57;1.27;;;13.80;88.10;;;;;;5042365;28;20800;-46
2022/04/20 10:13:15;;;;;;;1.40;1.20;;;13.80;86.10;;;;;;5058582;28;20229;-47
2022/04/20 10:18:30;;;;;;;3.63;1.33;;;13.70;86.80;;;;;;5043268;28;20202;-47
2022/04/20 10:20:59;;;;;;;2.43;1.30;;;13.70;88.10;;;;;;5054256;28;20274;-48
2022/04/20 10:23:29;;;;;;;1.13;1.07;;;13.90;88.00;;;;;;5053405;28;20210;-46
2022/04/20 10:25:57;;;;;;;3.20;1.50;;;14.10;89.10;;;;;;5036891;28;20194;-50
2022/04/20 10:28:31;;;;;;;1.87;1.50;;;14.20;89.70;;;;;;5059523;28;20191;-48
2022/04/20 10:31:15;;;;;;;2.23;1.40;;;14.30;89.60;;;;;;5047533;28;20226;-53
2022/04/20 10:34:07;;;;;;;2.43;1.77;;;14.30;88.10;;;;;;5053243;28;20202;-47
2022/04/20 10:36:59;;;;;;;1.53;1.30;;;14.40;88.80;;;;;;5051189;28;20715;-51
2022/04/20 10:39:30;;;;;;;1.70;1.40;;;14.40;87.80;;;;;;5064395;28;20207;-48
2022/04/20 10:42:17;;;;;;;4.13;1.43;;;14.40;87.10;;;;;;5050204;28;20925;-46
2022/04/20 10:44:59;;;;;;;1.20;1.10;;;14.30;86.60;;;;;;5053680;28;20229;-52
2022/04/20 10:47:28;;;;;;;1.10;1.00;;;14.30;87.30;;;;;;5051187;28;20236;-45
2022/04/20 10:50:12;;;;;;;1.50;1.10;;;14.50;87.20;;;;;;5051730;28;20225;-48
2022/04/20 10:52:41;;;;;;;1.03;1.00;;;14.60;87.80;;;;;;5048226;28;20927;-48
2022/04/20 10:55:09;;;;;;;2.00;1.10;;;14.50;85.80;;;;;;5056458;28;20648;-49
2022/04/20 10:57:38;;;;;;;2.90;1.40;;;14.50;85.30;;;;;;5044408;28;20660;-46
2022/04/20 11:00:33;;;;;;;1.50;1.30;;;14.50;87.50;;;;;;5047773;28;20282;-48
2022/04/20 11:03:03;;;;;;;1.73;1.30;;;14.70;87.20;;;;;;5052046;28;20227;-49
2022/04/20 11:05:29;;;;;;;2.77;1.50;;;14.80;85.50;;;;;;5056158;28;20187;-49
2022/04/20 11:08:07;;;;;;;1.53;1.00;;;14.80;88.00;;;;;;5054195;28;20277;-51
2022/04/20 11:10:35;;;;;;;2.00;1.10;;;15.00;86.80;;;;;;5058314;28;20210;-49
2022/04/20 11:19:13;;;;;;;1.53;1.23;;;15.00;84.60;;;;;;5060783;28;20202;-51
2022/04/20 11:21:54;;;;;;;1.43;1.30;;;15.10;85.20;;;;;;5064041;28;20850;-48
2022/04/20 11:24:27;;;;;;;1.53;1.13;;;15.00;85.40;;;;;;5055631;28;20194;-48
2022/04/20 11:26:54;;;;;;;1.83;1.00;;;15.10;83.60;;;;;;5043142;28;20381;-50
2022/04/20 11:29:22;;;;;;;1.23;1.17;;;15.10;84.30;;;;;;5060675;28;20281;-51
2022/04/20 11:31:52;;;;;;;3.30;1.10;;;15.10;84.20;;;;;;5051246;28;20234;-50
2022/04/20 11:34:20;;;;;;;1.20;1.10;;;15.30;85.30;;;;;;5051583;28;20737;-51
2022/04/20 11:36:48;;;;;;;1.63;1.30;;;15.30;83.30;;;;;;5052533;28;20260;-49
2022/04/20 11:39:16;;;;;;;2.83;1.20;;;15.30;83.50;;;;;;5056641;28;20199;-50
2022/04/20 11:41:45;;;;;;;3.93;1.27;;;15.40;83.50;;;;;;5052198;28;20219;-52
2022/04/20 11:44:22;;;;;;;2.73;1.00;;;15.50;83.10;;;;;;5043446;28;20207;-45
2022/04/20 11:46:51;;;;;;;1.67;0.90;;;15.50;82.50;;;;;;5052228;28;20898;-46
2022/04/20 11:49:19;;;;;;;3.87;1.20;;;15.40;82.60;;;;;;5057372;28;20280;-50
2022/04/20 11:51:57;;;;;;;2.23;1.53;;;15.40;82.90;;;;;;5054523;28;20983;-47
2022/04/20 11:54:25;;;;;;;3.00;1.30;;;15.60;82.90;;;;;;5069078;28;20210;-48
2022/04/20 11:57:11;;;;;;;1.97;1.30;;;15.60;82.70;;;;;;5047512;28;20210;-49
2022/04/20 11:59:45;;;;;;;1.33;0.97;;;15.60;83.00;;;;;;5043119;28;20213;-47
2022/04/20 12:02:14;;;;;;;1.20;1.10;;;15.50;81.50;;;;;;5054154;28;20736;-46
2022/04/20 12:04:42;;;;;;;2.53;1.30;;;15.40;81.30;;;;;;5046644;28;20941;-46
2022/04/20 12:07:10;;;;;;;1.90;1.40;;;15.50;81.20;;;;;;5054516;28;20199;-46
2022/04/20 12:09:40;;;;;;;1.07;0.93;;;15.50;81.20;;;;;;5051525;28;20195;-49
2022/04/20 12:12:09;;;;;;;1.00;0.73;;;15.60;81.40;;;;;;5049853;28;20222;-45
2022/04/20 12:14:37;;;;;;;1.30;1.23;;;15.80;79.90;;;;;;5042391;28;20206;-48
2022/04/20 12:17:07;;;;;;;1.47;0.97;;;15.70;78.20;;;;;;5053848;28;20737;-48
2022/04/20 12:19:41;;;;;;;1.70;1.07;;;15.70;79.70;;;;;;5047176;28;20627;-47
2022/04/20 12:22:09;;;;;;;3.17;1.00;;;15.80;79.90;;;;;;5054491;28;20214;-50
2022/04/20 12:24:37;;;;;;;2.70;1.30;;;15.90;78.90;;;;;;5050162;28;20872;-49
2022/04/20 12:27:16;;;;;;;0.97;0.80;;;15.90;80.10;;;;;;5051811;28;20293;-48
2022/04/20 12:29:44;;;;;;;1.10;0.93;;;16.00;79.00;;;;;;5042870;28;20202;-47
2022/04/20 12:32:11;;;;;;;1.77;1.00;;;16.10;77.60;;;;;;5051422;28;20223;-48
2022/04/20 12:34:52;;;;;;;6.13;1.27;;;16.00;76.60;;;;;;5044901;28;20244;-45
2022/04/20 12:37:20;;;;;;;3.43;0.90;;;16.10;78.40;;;;;;5044753;28;20940;-47
2022/04/20 12:39:47;;;;;;;2.57;1.00;;;16.30;78.20;;;;;;5052619;28;20203;-48
2022/04/20 12:42:17;;;;;;;3.10;0.90;;;16.30;77.60;;;;;;5053041;28;20492;-48
2022/04/20 12:44:51;;;;;;;2.23;1.30;;;16.30;77.80;;;;;;5049496;28;20285;-52
2022/04/20 12:47:34;;;;;;;1.87;1.10;;;16.40;77.00;;;;;;5055763;28;20207;-48
2022/04/20 12:50:24;;;;;;;1.17;1.03;;;16.50;75.10;;;;;;5059419;28;20593;-46
2022/04/20 12:52:56;;;;;;;1.37;1.13;;;16.50;77.10;;;;;;5063150;28;20227;-46
2022/04/20 12:55:24;;;;;;;3.50;0.90;;;16.50;75.00;;;;;;5052517;28;20198;-48
2022/04/20 13:03:34;;;;;;;3.33;1.30;;;16.40;73.80;;;;;;5057317;28;20194;-47
2022/04/20 13:06:03;;;;;;;1.00;0.90;;;16.50;73.60;;;;;;5056117;28;20213;-48
2022/04/20 13:08:30;;;;;;;1.60;1.30;;;16.60;74.90;;;;;;5049610;28;20885;-51
2022/04/20 13:10:58;;;;;;;2.03;1.23;;;17.10;73.60;;;;;;5050568;28;20210;-48
2022/04/20 13:13:26;;;;;;;1.53;1.43;;;17.10;73.30;;;;;;5051561;28;20195;-48
2022/04/20 13:15:56;;;;;;;2.87;1.27;;;17.40;74.10;;;;;;5039956;28;20633;-45
2022/04/20 13:18:23;;;;;;;1.90;1.00;;;17.60;75.70;;;;;;5055615;28;20298;-53
2022/04/20 13:20:51;;;;;;;1.10;1.00;;;18.10;72.00;;;;;;5060923;28;20211;-47
2022/04/20 13:23:19;;;;;;;1.20;1.10;;;18.30;71.00;;;;;;5049462;28;20861;-48
2022/04/20 13:28:31;;;;;;;1.60;1.17;;;18.70;67.90;;;;;;5058166;28;20321;-48
2022/04/20 13:30:58;;;;;;;2.10;1.23;;;18.70;66.70;;;;;;5052727;28;20225;-52
2022/04/20 13:33:24;;;;;;;2.10;1.00;;;18.60;65.30;;;;;;5037611;28;20202;-47
2022/04/20 13:35:53;;;;;;;1.80;1.40;;;18.60;64.40;;;;;;5052697;28;20187;-46
2022/04/20 13:38:22;;;;;;;1.43;1.20;;;18.40;65.90;;;;;;5059948;28;20264;-46
2022/04/20 13:40:49;;;;;;;4.60;1.53;;;18.50;65.50;;;;;;5055024;28;20768;-48
2022/04/20 13:43:16;;;;;;;3.40;1.33;;;18.80;64.20;;;;;;5051749;28;20210;-46
2022/04/20 13:45:43;;;;;;;1.60;1.20;;;19.00;63.60;;;;;;5052981;28;20191;-49
2022/04/20 13:48:10;;;;;;;1.30;1.20;;;19.30;62.50;;;;;;5038635;28;20214;-45
2022/04/20 13:50:37;;;;;;;1.03;1.03;;;19.40;61.80;;;;;;5059074;28;20218;-52
2022/04/20 13:53:07;;;;;;;1.87;1.30;;;19.60;62.30;;;;;;5052031;28;20428;-46
2022/04/20 13:55:36;;;;;;;1.77;1.67;;;20.00;59.80;;;;;;5055108;28;20205;-50
2022/04/20 13:58:03;;;;;;;1.30;1.20;;;19.90;58.80;;;;;;5051752;28;21027;-48
2022/04/20 14:00:30;;;;;;;1.33;1.20;;;19.50;59.60;;;;;;5048129;28;20207;-49